sensor_id;sensor_type;location;lat;lon;timestamp;P1;durP1;ratioP1;P2;durP2;ratioP2
35644;SDS011;21764;52.042;6.830;2022-07-21T00:02:55;23.27;;;16.83;;
35644;SDS011;21764;52.042;6.830;2022-07-21T00:07:56;25.23;;;18.35;;
35644;SDS011;21764;52.042;6.830;2022-07-21T00:12:57;26.08;;;17.92;;
35644;SDS011;21764;52.042;6.830;2022-07-21T00:17:58;25.05;;;17.73;;
35644;SDS011;21764;52.042;6.830;2022-07-21T00:22:59;28.50;;;18.45;;
35644;SDS011;21764;52.042;6.830;2022-07-21T00:28:00;26.58;;;19.25;;
35644;SDS011;21764;52.042;6.830;2022-07-21T00:33:02;25.75;;;18.45;;
35644;SDS011;21764;52.042;6.830;2022-07-21T00:38:03;24.30;;;16.38;;
35644;SDS011;21764;52.042;6.830;2022-07-21T00:43:04;18.25;;;13.73;;
35644;SDS011;21764;52.042;6.830;2022-07-21T00:48:05;17.00;;;13.18;;
35644;SDS011;21764;52.042;6.830;2022-07-21T00:53:06;17.98;;;13.85;;
35644;SDS011;21764;52.042;6.830;2022-07-21T00:58:06;17.17;;;10.55;;
35644;SDS011;21764;52.042;6.830;2022-07-21T01:03:07;8.52;;;6.85;;
35644;SDS011;21764;52.042;6.830;2022-07-21T01:08:09;10.10;;;6.75;;
35644;SDS011;21764;52.042;6.830;2022-07-21T01:13:11;10.40;;;6.85;;
35644;SDS011;21764;52.042;6.830;2022-07-21T01:18:12;12.32;;;7.85;;
35644;SDS011;21764;52.042;6.830;2022-07-21T01:23:12;12.05;;;8.55;;
35644;SDS011;21764;52.042;6.830;2022-07-21T01:28:13;9.40;;;6.85;;
35644;SDS011;21764;52.042;6.830;2022-07-21T01:33:14;11.10;;;5.70;;
35644;SDS011;21764;52.042;6.830;2022-07-21T01:38:15;6.90;;;5.30;;
35644;SDS011;21764;52.042;6.830;2022-07-21T01:43:34;7.05;;;4.95;;
35644;SDS011;21764;52.042;6.830;2022-07-21T01:48:34;7.53;;;5.43;;
35644;SDS011;21764;52.042;6.830;2022-07-21T01:53:35;9.52;;;5.00;;
35644;SDS011;21764;52.042;6.830;2022-07-21T01:58:36;5.53;;;4.50;;
35644;SDS011;21764;52.042;6.830;2022-07-21T02:03:37;6.15;;;4.32;;
35644;SDS011;21764;52.042;6.830;2022-07-21T02:08:37;7.05;;;5.32;;
35644;SDS011;21764;52.042;6.830;2022-07-21T02:13:38;11.93;;;7.78;;
35644;SDS011;21764;52.042;6.830;2022-07-21T02:18:39;18.00;;;10.25;;
35644;SDS011;21764;52.042;6.830;2022-07-21T02:23:41;14.52;;;11.35;;
35644;SDS011;21764;52.042;6.830;2022-07-21T02:28:41;17.60;;;11.55;;
35644;SDS011;21764;52.042;6.830;2022-07-21T02:33:42;18.65;;;13.52;;
35644;SDS011;21764;52.042;6.830;2022-07-21T02:38:43;19.90;;;12.90;;
35644;SDS011;21764;52.042;6.830;2022-07-21T02:43:43;17.85;;;13.23;;
35644;SDS011;21764;52.042;6.830;2022-07-21T02:48:44;20.27;;;14.52;;
35644;SDS011;21764;52.042;6.830;2022-07-21T02:53:45;20.08;;;14.75;;
35644;SDS011;21764;52.042;6.830;2022-07-21T02:58:45;18.10;;;16.02;;
35644;SDS011;21764;52.042;6.830;2022-07-21T03:03:46;22.08;;;16.15;;
35644;SDS011;21764;52.042;6.830;2022-07-21T03:08:47;22.20;;;16.73;;
35644;SDS011;21764;52.042;6.830;2022-07-21T03:13:47;25.73;;;17.75;;
35644;SDS011;21764;52.042;6.830;2022-07-21T03:18:48;20.27;;;16.27;;
35644;SDS011;21764;52.042;6.830;2022-07-21T03:23:49;20.38;;;17.23;;
35644;SDS011;21764;52.042;6.830;2022-07-21T03:28:49;22.40;;;17.67;;
35644;SDS011;21764;52.042;6.830;2022-07-21T03:33:50;25.25;;;18.52;;
35644;SDS011;21764;52.042;6.830;2022-07-21T03:38:51;24.48;;;17.77;;
35644;SDS011;21764;52.042;6.830;2022-07-21T03:43:51;30.92;;;19.50;;
35644;SDS011;21764;52.042;6.830;2022-07-21T03:48:52;29.95;;;20.73;;
35644;SDS011;21764;52.042;6.830;2022-07-21T03:53:52;24.67;;;19.23;;
35644;SDS011;21764;52.042;6.830;2022-07-21T03:58:53;22.08;;;19.33;;
35644;SDS011;21764;52.042;6.830;2022-07-21T04:03:54;26.35;;;19.23;;
35644;SDS011;21764;52.042;6.830;2022-07-21T04:08:54;24.42;;;19.67;;
35644;SDS011;21764;52.042;6.830;2022-07-21T04:13:55;27.83;;;21.27;;
35644;SDS011;21764;52.042;6.830;2022-07-21T04:18:56;26.65;;;20.45;;
35644;SDS011;21764;52.042;6.830;2022-07-21T04:23:56;24.67;;;19.30;;
35644;SDS011;21764;52.042;6.830;2022-07-21T04:28:57;27.60;;;18.90;;
35644;SDS011;21764;52.042;6.830;2022-07-21T04:33:57;25.38;;;18.80;;
35644;SDS011;21764;52.042;6.830;2022-07-21T04:38:58;22.08;;;19.05;;
35644;SDS011;21764;52.042;6.830;2022-07-21T04:43:59;22.67;;;18.38;;
35644;SDS011;21764;52.042;6.830;2022-07-21T04:49:01;24.27;;;18.27;;
35644;SDS011;21764;52.042;6.830;2022-07-21T04:54:01;24.65;;;18.50;;
35644;SDS011;21764;52.042;6.830;2022-07-21T04:59:02;28.33;;;19.77;;
35644;SDS011;21764;52.042;6.830;2022-07-21T05:04:03;23.77;;;19.13;;
35644;SDS011;21764;52.042;6.830;2022-07-21T05:09:04;24.52;;;18.52;;
35644;SDS011;21764;52.042;6.830;2022-07-21T05:14:05;23.60;;;18.83;;
35644;SDS011;21764;52.042;6.830;2022-07-21T05:19:06;27.38;;;20.15;;
35644;SDS011;21764;52.042;6.830;2022-07-21T05:24:06;26.23;;;20.15;;
35644;SDS011;21764;52.042;6.830;2022-07-21T05:29:09;25.33;;;19.98;;
35644;SDS011;21764;52.042;6.830;2022-07-21T05:34:09;27.75;;;21.52;;
35644;SDS011;21764;52.042;6.830;2022-07-21T05:39:10;26.48;;;22.02;;
35644;SDS011;21764;52.042;6.830;2022-07-21T05:44:11;28.75;;;21.95;;
35644;SDS011;21764;52.042;6.830;2022-07-21T05:49:11;30.75;;;21.55;;
35644;SDS011;21764;52.042;6.830;2022-07-21T05:54:12;28.80;;;20.92;;
35644;SDS011;21764;52.042;6.830;2022-07-21T05:59:13;26.92;;;20.95;;
35644;SDS011;21764;52.042;6.830;2022-07-21T06:04:13;27.77;;;20.73;;
35644;SDS011;21764;52.042;6.830;2022-07-21T06:09:14;28.15;;;22.27;;
35644;SDS011;21764;52.042;6.830;2022-07-21T06:14:14;27.05;;;22.23;;
35644;SDS011;21764;52.042;6.830;2022-07-21T06:19:15;30.38;;;22.42;;
35644;SDS011;21764;52.042;6.830;2022-07-21T06:24:16;29.58;;;21.80;;
35644;SDS011;21764;52.042;6.830;2022-07-21T06:29:19;33.42;;;22.50;;
35644;SDS011;21764;52.042;6.830;2022-07-21T06:34:20;26.77;;;22.00;;
35644;SDS011;21764;52.042;6.830;2022-07-21T06:39:20;25.10;;;20.65;;
35644;SDS011;21764;52.042;6.830;2022-07-21T06:44:21;28.23;;;20.98;;
35644;SDS011;21764;52.042;6.830;2022-07-21T06:49:24;30.17;;;21.25;;
35644;SDS011;21764;52.042;6.830;2022-07-21T06:54:25;25.02;;;21.38;;
35644;SDS011;21764;52.042;6.830;2022-07-21T06:59:26;33.30;;;22.05;;
35644;SDS011;21764;52.042;6.830;2022-07-21T07:04:26;27.55;;;21.88;;
35644;SDS011;21764;52.042;6.830;2022-07-21T07:09:27;25.70;;;22.13;;
35644;SDS011;21764;52.042;6.830;2022-07-21T07:14:31;27.45;;;21.38;;
35644;SDS011;21764;52.042;6.830;2022-07-21T07:19:33;27.80;;;22.17;;
35644;SDS011;21764;52.042;6.830;2022-07-21T07:24:34;28.85;;;22.52;;
35644;SDS011;21764;52.042;6.830;2022-07-21T07:29:35;32.25;;;23.27;;
35644;SDS011;21764;52.042;6.830;2022-07-21T07:34:35;28.05;;;21.95;;
35644;SDS011;21764;52.042;6.830;2022-07-21T07:39:36;33.25;;;24.17;;
35644;SDS011;21764;52.042;6.830;2022-07-21T07:44:37;36.63;;;26.45;;
35644;SDS011;21764;52.042;6.830;2022-07-21T07:49:38;33.97;;;25.40;;
35644;SDS011;21764;52.042;6.830;2022-07-21T07:54:39;38.45;;;28.00;;
35644;SDS011;21764;52.042;6.830;2022-07-21T07:59:39;40.55;;;28.80;;
35644;SDS011;21764;52.042;6.830;2022-07-21T08:04:40;44.35;;;31.40;;
35644;SDS011;21764;52.042;6.830;2022-07-21T08:09:41;48.38;;;33.90;;
35644;SDS011;21764;52.042;6.830;2022-07-21T08:14:41;48.70;;;34.22;;
35644;SDS011;21764;52.042;6.830;2022-07-21T08:19:43;53.63;;;34.72;;
35644;SDS011;21764;52.042;6.830;2022-07-21T08:24:43;48.50;;;33.10;;
35644;SDS011;21764;52.042;6.830;2022-07-21T08:29:44;48.33;;;32.65;;
35644;SDS011;21764;52.042;6.830;2022-07-21T08:34:46;40.88;;;28.20;;
35644;SDS011;21764;52.042;6.830;2022-07-21T08:39:47;42.10;;;29.25;;
35644;SDS011;21764;52.042;6.830;2022-07-21T08:44:48;32.33;;;25.17;;
35644;SDS011;21764;52.042;6.830;2022-07-21T08:49:48;36.33;;;24.10;;
35644;SDS011;21764;52.042;6.830;2022-07-21T08:54:50;32.47;;;22.80;;
35644;SDS011;21764;52.042;6.830;2022-07-21T08:59:50;34.53;;;19.90;;
35644;SDS011;21764;52.042;6.830;2022-07-21T09:04:52;22.98;;;18.58;;
35644;SDS011;21764;52.042;6.830;2022-07-21T09:09:54;24.58;;;16.20;;
35644;SDS011;21764;52.042;6.830;2022-07-21T09:15:15;22.17;;;12.50;;
35644;SDS011;21764;52.042;6.830;2022-07-21T09:20:24;18.15;;;10.45;;
35644;SDS011;21764;52.042;6.830;2022-07-21T09:25:39;17.80;;;9.60;;
35644;SDS011;21764;52.042;6.830;2022-07-21T09:41:17;16.57;;;10.30;;
35644;SDS011;21764;52.042;6.830;2022-07-21T09:46:21;18.67;;;11.33;;
35644;SDS011;21764;52.042;6.830;2022-07-21T09:51:28;14.68;;;9.88;;
35644;SDS011;21764;52.042;6.830;2022-07-21T09:56:40;14.57;;;8.35;;
35644;SDS011;21764;52.042;6.830;2022-07-21T10:01:42;16.25;;;8.20;;
35644;SDS011;21764;52.042;6.830;2022-07-21T10:06:44;20.58;;;9.38;;
35644;SDS011;21764;52.042;6.830;2022-07-21T10:11:46;15.80;;;9.70;;
35644;SDS011;21764;52.042;6.830;2022-07-21T10:16:47;21.83;;;10.18;;
35644;SDS011;21764;52.042;6.830;2022-07-21T10:33:18;16.00;;;9.60;;
35644;SDS011;21764;52.042;6.830;2022-07-21T10:53:40;26.30;;;11.20;;
35644;SDS011;21764;52.042;6.830;2022-07-21T10:58:41;20.15;;;12.07;;
35644;SDS011;21764;52.042;6.830;2022-07-21T11:03:42;15.90;;;11.30;;
35644;SDS011;21764;52.042;6.830;2022-07-21T11:08:46;21.17;;;10.43;;
35644;SDS011;21764;52.042;6.830;2022-07-21T11:13:59;22.58;;;10.93;;
35644;SDS011;21764;52.042;6.830;2022-07-21T11:19:03;24.63;;;11.48;;
35644;SDS011;21764;52.042;6.830;2022-07-21T11:24:04;17.77;;;10.35;;
35644;SDS011;21764;52.042;6.830;2022-07-21T11:29:05;22.13;;;10.00;;
35644;SDS011;21764;52.042;6.830;2022-07-21T11:34:07;15.48;;;9.75;;
35644;SDS011;21764;52.042;6.830;2022-07-21T11:39:08;15.82;;;10.63;;
35644;SDS011;21764;52.042;6.830;2022-07-21T11:44:11;14.50;;;9.73;;
35644;SDS011;21764;52.042;6.830;2022-07-21T11:49:21;12.50;;;9.52;;
35644;SDS011;21764;52.042;6.830;2022-07-21T11:54:30;12.65;;;8.23;;
35644;SDS011;21764;52.042;6.830;2022-07-21T11:59:31;10.35;;;7.82;;
35644;SDS011;21764;52.042;6.830;2022-07-21T12:04:34;9.52;;;7.72;;
35644;SDS011;21764;52.042;6.830;2022-07-21T12:09:39;10.55;;;9.25;;
35644;SDS011;21764;52.042;6.830;2022-07-21T12:14:42;12.23;;;9.13;;
35644;SDS011;21764;52.042;6.830;2022-07-21T12:19:45;15.30;;;9.38;;
35644;SDS011;21764;52.042;6.830;2022-07-21T12:24:48;11.95;;;9.07;;
35644;SDS011;21764;52.042;6.830;2022-07-21T12:29:50;10.27;;;7.88;;
35644;SDS011;21764;52.042;6.830;2022-07-21T12:34:52;9.73;;;7.43;;
35644;SDS011;21764;52.042;6.830;2022-07-21T12:40:01;9.90;;;8.90;;
35644;SDS011;21764;52.042;6.830;2022-07-21T12:45:19;12.98;;;7.82;;
35644;SDS011;21764;52.042;6.830;2022-07-21T12:50:21;7.97;;;6.80;;
35644;SDS011;21764;52.042;6.830;2022-07-21T12:55:22;7.03;;;6.15;;
35644;SDS011;21764;52.042;6.830;2022-07-21T13:00:23;9.25;;;5.28;;
35644;SDS011;21764;52.042;6.830;2022-07-21T13:05:24;5.32;;;4.68;;
35644;SDS011;21764;52.042;6.830;2022-07-21T13:10:25;4.55;;;3.85;;
35644;SDS011;21764;52.042;6.830;2022-07-21T13:15:26;4.55;;;4.15;;
35644;SDS011;21764;52.042;6.830;2022-07-21T13:20:27;5.50;;;4.80;;
35644;SDS011;21764;52.042;6.830;2022-07-21T13:25:27;6.63;;;4.40;;
35644;SDS011;21764;52.042;6.830;2022-07-21T13:30:28;5.20;;;4.70;;
35644;SDS011;21764;52.042;6.830;2022-07-21T13:35:29;6.20;;;5.60;;
35644;SDS011;21764;52.042;6.830;2022-07-21T13:40:30;6.05;;;5.45;;
35644;SDS011;21764;52.042;6.830;2022-07-21T13:45:30;6.82;;;5.70;;
35644;SDS011;21764;52.042;6.830;2022-07-21T13:50:32;6.25;;;5.70;;
35644;SDS011;21764;52.042;6.830;2022-07-21T13:55:32;7.70;;;6.28;;
35644;SDS011;21764;52.042;6.830;2022-07-21T14:00:34;11.48;;;6.50;;
35644;SDS011;21764;52.042;6.830;2022-07-21T14:05:35;8.70;;;5.35;;
35644;SDS011;21764;52.042;6.830;2022-07-21T14:10:36;8.43;;;5.80;;
35644;SDS011;21764;52.042;6.830;2022-07-21T14:15:37;10.95;;;6.70;;
35644;SDS011;21764;52.042;6.830;2022-07-21T14:20:37;10.05;;;8.35;;
35644;SDS011;21764;52.042;6.830;2022-07-21T14:25:38;11.05;;;9.95;;
35644;SDS011;21764;52.042;6.830;2022-07-21T14:30:39;11.85;;;10.48;;
35644;SDS011;21764;52.042;6.830;2022-07-21T14:35:40;13.23;;;10.32;;
35644;SDS011;21764;52.042;6.830;2022-07-21T14:40:41;15.05;;;10.93;;
35644;SDS011;21764;52.042;6.830;2022-07-21T14:45:43;13.02;;;10.07;;
35644;SDS011;21764;52.042;6.830;2022-07-21T14:50:43;10.27;;;8.60;;
35644;SDS011;21764;52.042;6.830;2022-07-21T14:55:44;9.13;;;7.40;;
35644;SDS011;21764;52.042;6.830;2022-07-21T15:00:44;13.52;;;8.77;;
35644;SDS011;21764;52.042;6.830;2022-07-21T15:05:45;10.75;;;8.95;;
35644;SDS011;21764;52.042;6.830;2022-07-21T15:10:46;10.07;;;8.60;;
35644;SDS011;21764;52.042;6.830;2022-07-21T15:15:49;8.23;;;7.05;;
35644;SDS011;21764;52.042;6.830;2022-07-21T15:20:49;10.57;;;8.90;;
35644;SDS011;21764;52.042;6.830;2022-07-21T15:25:50;12.05;;;8.23;;
35644;SDS011;21764;52.042;6.830;2022-07-21T15:30:50;13.73;;;8.85;;
35644;SDS011;21764;52.042;6.830;2022-07-21T15:41:50;10.55;;;8.02;;
35644;SDS011;21764;52.042;6.830;2022-07-21T15:46:51;11.88;;;8.77;;
35644;SDS011;21764;52.042;6.830;2022-07-21T15:51:52;11.00;;;7.97;;
35644;SDS011;21764;52.042;6.830;2022-07-21T15:56:54;9.68;;;8.10;;
35644;SDS011;21764;52.042;6.830;2022-07-21T16:01:55;8.55;;;7.40;;
35644;SDS011;21764;52.042;6.830;2022-07-21T16:06:56;9.00;;;7.78;;
35644;SDS011;21764;52.042;6.830;2022-07-21T16:11:57;11.73;;;8.80;;
35644;SDS011;21764;52.042;6.830;2022-07-21T16:16:58;13.80;;;9.05;;
35644;SDS011;21764;52.042;6.830;2022-07-21T16:21:59;14.32;;;9.45;;
35644;SDS011;21764;52.042;6.830;2022-07-21T16:27:00;8.77;;;7.88;;
35644;SDS011;21764;52.042;6.830;2022-07-21T16:32:02;11.90;;;9.07;;
35644;SDS011;21764;52.042;6.830;2022-07-21T16:37:03;11.75;;;8.73;;
35644;SDS011;21764;52.042;6.830;2022-07-21T16:42:06;8.95;;;6.70;;
35644;SDS011;21764;52.042;6.830;2022-07-21T16:47:07;6.78;;;4.93;;
35644;SDS011;21764;52.042;6.830;2022-07-21T16:52:08;6.18;;;4.50;;
35644;SDS011;21764;52.042;6.830;2022-07-21T16:57:09;6.75;;;5.07;;
35644;SDS011;21764;52.042;6.830;2022-07-21T17:02:10;5.25;;;4.28;;
35644;SDS011;21764;52.042;6.830;2022-07-21T17:07:11;5.82;;;4.80;;
35644;SDS011;21764;52.042;6.830;2022-07-21T17:12:12;6.05;;;5.03;;
35644;SDS011;21764;52.042;6.830;2022-07-21T17:17:14;6.30;;;5.30;;
35644;SDS011;21764;52.042;6.830;2022-07-21T17:22:14;5.72;;;5.15;;
35644;SDS011;21764;52.042;6.830;2022-07-21T17:27:15;7.07;;;6.20;;
35644;SDS011;21764;52.042;6.830;2022-07-21T17:32:16;6.72;;;5.97;;
35644;SDS011;21764;52.042;6.830;2022-07-21T17:37:16;8.10;;;6.03;;
35644;SDS011;21764;52.042;6.830;2022-07-21T17:42:17;7.07;;;6.40;;
35644;SDS011;21764;52.042;6.830;2022-07-21T17:47:18;8.85;;;6.65;;
35644;SDS011;21764;52.042;6.830;2022-07-21T17:52:18;6.85;;;6.15;;
35644;SDS011;21764;52.042;6.830;2022-07-21T17:57:19;6.70;;;5.97;;
35644;SDS011;21764;52.042;6.830;2022-07-21T18:02:38;7.38;;;6.43;;
35644;SDS011;21764;52.042;6.830;2022-07-21T18:07:39;9.07;;;7.28;;
35644;SDS011;21764;52.042;6.830;2022-07-21T18:12:40;8.20;;;6.65;;
35644;SDS011;21764;52.042;6.830;2022-07-21T18:17:40;9.88;;;7.15;;
35644;SDS011;21764;52.042;6.830;2022-07-21T18:22:42;8.18;;;7.38;;
35644;SDS011;21764;52.042;6.830;2022-07-21T18:27:43;8.68;;;7.05;;
35644;SDS011;21764;52.042;6.830;2022-07-21T18:32:43;9.55;;;7.45;;
35644;SDS011;21764;52.042;6.830;2022-07-21T18:37:44;7.65;;;6.85;;
35644;SDS011;21764;52.042;6.830;2022-07-21T18:42:45;7.80;;;6.88;;
35644;SDS011;21764;52.042;6.830;2022-07-21T18:47:46;10.77;;;7.25;;
35644;SDS011;21764;52.042;6.830;2022-07-21T18:52:47;12.82;;;7.78;;
35644;SDS011;21764;52.042;6.830;2022-07-21T18:57:48;9.40;;;8.40;;
35644;SDS011;21764;52.042;6.830;2022-07-21T19:02:49;10.00;;;8.57;;
35644;SDS011;21764;52.042;6.830;2022-07-21T19:07:49;11.52;;;8.80;;
35644;SDS011;21764;52.042;6.830;2022-07-21T19:12:50;10.10;;;9.05;;
35644;SDS011;21764;52.042;6.830;2022-07-21T19:17:51;13.07;;;9.18;;
35644;SDS011;21764;52.042;6.830;2022-07-21T19:22:51;11.57;;;10.13;;
35644;SDS011;21764;52.042;6.830;2022-07-21T19:27:52;10.95;;;9.85;;
35644;SDS011;21764;52.042;6.830;2022-07-21T19:32:53;10.80;;;9.57;;
35644;SDS011;21764;52.042;6.830;2022-07-21T19:37:54;10.45;;;8.13;;
35644;SDS011;21764;52.042;6.830;2022-07-21T19:42:55;8.95;;;6.68;;
35644;SDS011;21764;52.042;6.830;2022-07-21T19:47:57;3.85;;;3.53;;
35644;SDS011;21764;52.042;6.830;2022-07-21T19:52:58;4.38;;;3.03;;
35644;SDS011;21764;52.042;6.830;2022-07-21T19:57:58;2.10;;;2.00;;
35644;SDS011;21764;52.042;6.830;2022-07-21T20:02:59;1.63;;;1.52;;
35644;SDS011;21764;52.042;6.830;2022-07-21T20:08:00;2.53;;;1.80;;
35644;SDS011;21764;52.042;6.830;2022-07-21T20:13:01;2.15;;;1.95;;
35644;SDS011;21764;52.042;6.830;2022-07-21T20:18:04;4.47;;;1.70;;
35644;SDS011;21764;52.042;6.830;2022-07-21T20:23:08;1.70;;;1.60;;
35644;SDS011;21764;52.042;6.830;2022-07-21T20:28:09;2.40;;;1.42;;
35644;SDS011;21764;52.042;6.830;2022-07-21T20:33:10;4.00;;;1.88;;
35644;SDS011;21764;52.042;6.830;2022-07-21T20:38:11;4.80;;;2.15;;
35644;SDS011;21764;52.042;6.830;2022-07-21T20:43:15;3.33;;;1.90;;
35644;SDS011;21764;52.042;6.830;2022-07-21T20:48:21;3.90;;;1.80;;
35644;SDS011;21764;52.042;6.830;2022-07-21T20:53:21;5.07;;;1.58;;
35644;SDS011;21764;52.042;6.830;2022-07-21T20:58:22;1.83;;;1.50;;
35644;SDS011;21764;52.042;6.830;2022-07-21T21:03:23;1.35;;;1.25;;
35644;SDS011;21764;52.042;6.830;2022-07-21T21:08:23;2.22;;;1.38;;
35644;SDS011;21764;52.042;6.830;2022-07-21T21:13:24;2.53;;;1.33;;
35644;SDS011;21764;52.042;6.830;2022-07-21T21:18:25;2.00;;;1.40;;
35644;SDS011;21764;52.042;6.830;2022-07-21T21:23:26;2.65;;;1.48;;
35644;SDS011;21764;52.042;6.830;2022-07-21T21:28:26;1.45;;;1.27;;
35644;SDS011;21764;52.042;6.830;2022-07-21T21:33:27;2.35;;;1.35;;
35644;SDS011;21764;52.042;6.830;2022-07-21T21:38:28;2.05;;;1.30;;
35644;SDS011;21764;52.042;6.830;2022-07-21T21:43:28;4.10;;;1.38;;
35644;SDS011;21764;52.042;6.830;2022-07-21T21:48:29;2.10;;;1.42;;
35644;SDS011;21764;52.042;6.830;2022-07-21T21:53:30;5.13;;;1.50;;
35644;SDS011;21764;52.042;6.830;2022-07-21T21:58:31;4.93;;;1.70;;
35644;SDS011;21764;52.042;6.830;2022-07-21T22:03:32;4.78;;;1.42;;
35644;SDS011;21764;52.042;6.830;2022-07-21T22:08:32;2.90;;;1.95;;
35644;SDS011;21764;52.042;6.830;2022-07-21T22:13:34;2.50;;;1.60;;
35644;SDS011;21764;52.042;6.830;2022-07-21T22:18:35;1.95;;;1.70;;
35644;SDS011;21764;52.042;6.830;2022-07-21T22:23:35;1.92;;;1.67;;
35644;SDS011;21764;52.042;6.830;2022-07-21T22:28:37;3.97;;;1.85;;
35644;SDS011;21764;52.042;6.830;2022-07-21T22:33:38;7.07;;;1.83;;
35644;SDS011;21764;52.042;6.830;2022-07-21T22:38:39;3.08;;;1.98;;
35644;SDS011;21764;52.042;6.830;2022-07-21T22:43:39;3.28;;;2.15;;
35644;SDS011;21764;52.042;6.830;2022-07-21T22:48:40;7.07;;;2.20;;
35644;SDS011;21764;52.042;6.830;2022-07-21T22:53:41;5.55;;;2.00;;
35644;SDS011;21764;52.042;6.830;2022-07-21T22:58:41;5.10;;;2.55;;
35644;SDS011;21764;52.042;6.830;2022-07-21T23:03:42;5.75;;;2.05;;
35644;SDS011;21764;52.042;6.830;2022-07-21T23:08:43;6.30;;;2.00;;
35644;SDS011;21764;52.042;6.830;2022-07-21T23:13:43;8.60;;;2.17;;
35644;SDS011;21764;52.042;6.830;2022-07-21T23:18:44;6.40;;;2.63;;
35644;SDS011;21764;52.042;6.830;2022-07-21T23:23:45;6.47;;;2.38;;
35644;SDS011;21764;52.042;6.830;2022-07-21T23:28:46;5.20;;;2.22;;
35644;SDS011;21764;52.042;6.830;2022-07-21T23:33:46;6.45;;;2.30;;
35644;SDS011;21764;52.042;6.830;2022-07-21T23:38:47;8.05;;;2.50;;
35644;SDS011;21764;52.042;6.830;2022-07-21T23:43:47;8.70;;;2.95;;
35644;SDS011;21764;52.042;6.830;2022-07-21T23:48:48;12.70;;;3.78;;
35644;SDS011;21764;52.042;6.830;2022-07-21T23:53:49;15.45;;;4.20;;
35644;SDS011;21764;52.042;6.830;2022-07-21T23:58:49;11.57;;;4.10;;
